Terminal Aerodrome Forecast
Issued by NWS

Home | Current Version | Previous Version | Text Only | Print | Product List | Glossary On
Versions: 1 2 3 4 5 6 7 8 9 10 11 12 13 14 15 16 17 18 19 20 21 22 23 24 25 26 27 28 29 30 31 32 33 34 35 36 37 38 39 40 41 42 43 44
000
FTAK31 PANC 222333
TAFAIL
TAF
PAIL 222333Z 2300/2324 13008KT P6SM FEW015 BKN040
     FM230200 13012G20KT P6SM SCT040 SCT120
     FM231000 11008KT P6SM VCFG FEW005 BKN025
     FM231400 09005KT 4SM BR BKN005 OVC025
     FM232000 10005KT P6SM FEW005 BKN080=

USA.gov is the U.S. government's official web portal to all federal, state and local government web resources and services.